KIJX/IJX METAR and TAF weather

Enter ICAO airport designator
Station Type Date Time Source
KIJX METAR 2019/02/16 03:35 UTC NOAA

KIJX 160335Z AUTO 33010KT 10SM OVC095 M08/M12 A3011 RMK AO2 T10781117


Station Type Date Time Source
KIJX Decoded METAR 2019/02/16 03:35 UTC NOAA

Jacksonville, Jacksonville Municipal Airport, IL, United States (KIJX) 39-46-27N 090-14-19W
Feb 15, 2019 - 10:35 PM EST / 2019.02.16 0335 UTC
Wind: from the NNW (330 degrees) at 12 MPH (10 KT):0
Visibility: 10 mile(s):0
Sky conditions: overcast
Temperature: 18.0 F (-7.8 C)
Windchill: 5 F (-15 C):1
Dew Point: 10.9 F (-11.7 C)
Relative Humidity: 73%
Pressure (altimeter): 30.11 in. Hg (1019 hPa)
ob: KIJX 160335Z AUTO 33010KT 10SM OVC095 M08/M12 A3011 RMK AO2 T10781117
cycle: 3

Station Type Date Time Source
KIJX TAF UTC NOAA

Error!


Example: see airport list